Time;durP1;ratioP1;P1;durP2;ratioP2;P2;SDS_P1;SDS_P2;PMS_P1;PMS_P2;Temp;Humidity;BMP_temperature;BMP_pressure;BME280_temperature;BME280_humidity;BME280_pressure;Samples;Min_cycle;Max_cycle;Signal;HPM_P1;HPM_P2
2022/02/09 00:10:00;;;;;;;;;;;12.60;55.30;;;;;;5162637;27;19911;-69
2022/02/09 00:15:37;;;;;;;;;;;12.60;55.20;;;;;;5130156;27;19908;-69
2022/02/09 00:21:00;;;;;;;;;;;12.60;55.20;;;;;;5162616;27;19907;-68
2022/02/09 00:44:49;;;;;;;;;;;12.70;55.20;;;;;;5161746;27;20030;-69
2022/02/09 01:57:52;;;;;;;;;;;12.70;55.20;;;;;;5160724;27;19938;-69
2022/02/09 02:00:18;;;;;;;;;;;12.60;55.20;;;;;;5161010;27;20382;-70
2022/02/09 02:02:44;;;;;;;;;;;12.60;55.20;;;;;;5163569;27;19915;-70
2022/02/09 02:05:10;;;;;;;;;;;12.60;55.20;;;;;;5164606;27;20217;-69
2022/02/09 02:07:55;;;;;;;;;;;12.60;55.30;;;;;;5164777;27;19911;-70
2022/02/09 02:10:30;;;;;;;;;;;12.60;55.30;;;;;;5164727;27;19967;-70
2022/02/09 02:17:57;;;;;;;;;;;12.60;55.30;;;;;;5164499;27;19907;-69
2022/02/09 02:20:39;;;;;;;;;;;12.60;55.30;;;;;;5164478;27;19946;-70
2022/02/09 03:09:21;;;;;;;;;;;12.60;55.30;;;;;;5163562;27;19918;-69
2022/02/09 03:14:36;;;;;;;;;;;12.60;55.30;;;;;;5162581;27;19956;-70
2022/02/09 03:17:07;;;;;;;;;;;12.60;55.30;;;;;;5163350;27;19933;-70
2022/02/09 03:56:31;;;;;;;;;;;12.60;55.30;;;;;;5162768;27;19903;-70
2022/02/09 03:58:57;;;;;;;;;;;12.60;55.20;;;;;;5162497;27;19964;-70
2022/02/09 04:01:26;;;;;;;;;;;12.60;55.30;;;;;;5162433;27;20147;-70
2022/02/09 04:03:52;;;;;;;;;;;12.60;55.30;;;;;;5162471;27;19922;-70
2022/02/09 04:06:17;;;;;;;;;;;12.60;55.30;;;;;;5162232;27;20159;-69
2022/02/09 04:08:51;;;;;;;;;;;12.60;55.30;;;;;;5162394;27;19978;-70
2022/02/09 04:11:32;;;;;;;;;;;12.60;55.30;;;;;;5162272;27;19911;-70
2022/02/09 04:16:46;;;;;;;;;;;12.60;55.20;;;;;;5162204;27;19921;-69
2022/02/09 04:59:25;;;;;;;;;;;12.60;55.30;;;;;;5162007;27;19911;-70
2022/02/09 05:26:24;;;;;;;;;;;12.60;55.30;;;;;;5161756;27;19984;-70
2022/02/09 05:28:50;;;;;;;;;;;12.60;55.30;;;;;;5161561;27;20308;-69
2022/02/09 05:31:15;;;;;;;;;;;12.60;55.40;;;;;;5161403;27;19911;-70
2022/02/09 05:33:41;;;;;;;;;;;12.60;55.40;;;;;;5161417;27;19915;-70
2022/02/09 05:36:07;;;;;;;;;;;12.60;55.40;;;;;;5161418;27;19903;-70
2022/02/09 05:38:32;;;;;;;;;;;12.60;55.30;;;;;;5165491;27;19903;-70
2022/02/09 05:40:59;;;;;;;;;;;12.60;55.30;;;;;;5165420;27;20293;-69
2022/02/09 05:43:26;;;;;;;;;;;12.60;55.30;;;;;;5165234;27;19914;-69
2022/02/09 05:51:07;;;;;;;;;;;12.60;55.30;;;;;;5165268;27;20024;-68
2022/02/09 06:00:56;;;;;;;;;;;12.60;55.40;;;;;;5164959;27;19911;-69
2022/02/09 06:03:22;;;;;;;;;;;12.60;55.40;;;;;;5164864;27;19961;-70
2022/02/09 06:05:47;;;;;;;;;;;12.60;55.40;;;;;;5164777;27;19942;-70
2022/02/09 06:08:13;;;;;;;;;;;12.60;55.30;;;;;;5164898;27;19911;-70
2022/02/09 06:10:41;;;;;;;;;;;12.60;55.30;;;;;;5164766;27;19911;-70
2022/02/09 06:13:43;;;;;;;;;;;12.60;55.30;;;;;;5164727;27;19911;-69
2022/02/09 06:21:23;;;;;;;;;;;12.60;55.40;;;;;;5164686;27;19997;-69
2022/02/09 06:23:48;;;;;;;;;;;12.60;55.40;;;;;;5164498;27;20227;-68
2022/02/09 06:26:14;;;;;;;;;;;12.60;55.30;;;;;;5164547;27;19996;-69
2022/02/09 06:28:40;;;;;;;;;;;12.60;55.30;;;;;;5164535;27;19938;-69
2022/02/09 06:31:06;;;;;;;;;;;12.60;55.30;;;;;;5164473;27;19911;-70
2022/02/09 06:33:31;;;;;;;;;;;12.60;55.30;;;;;;5164354;27;19919;-69
2022/02/09 06:35:59;;;;;;;;;;;12.60;55.30;;;;;;5164331;27;19966;-70
2022/02/09 06:38:25;;;;;;;;;;;12.60;55.40;;;;;;5164313;27;19910;-70
2022/02/09 06:40:54;;;;;;;;;;;12.60;55.40;;;;;;5164228;27;19986;-70
2022/02/09 06:43:20;;;;;;;;;;;12.60;55.40;;;;;;5164178;27;20405;-69
2022/02/09 06:45:45;;;;;;;;;;;12.60;55.30;;;;;;5164213;27;19918;-70
2022/02/09 06:48:12;;;;;;;;;;;12.60;55.30;;;;;;5164280;27;19911;-70
2022/02/09 06:50:41;;;;;;;;;;;12.60;55.20;;;;;;5145515;27;19903;-70
2022/02/09 06:55:55;;;;;;;;;;;12.60;55.20;;;;;;5164307;27;20211;-70
2022/02/09 06:58:41;;;;;;;;;;;12.60;55.20;;;;;;5164028;27;20118;-70
2022/02/09 07:01:07;;;;;;;;;;;12.60;55.30;;;;;;5163724;27;20100;-70
2022/02/09 07:03:33;;;;;;;;;;;12.60;55.30;;;;;;5163770;27;19921;-70
2022/02/09 07:05:58;;;;;;;;;;;12.60;55.30;;;;;;5163782;27;19994;-70
2022/02/09 07:08:24;;;;;;;;;;;12.60;55.30;;;;;;5163856;27;19979;-70
2022/02/09 07:10:50;;;;;;;;;;;12.60;55.30;;;;;;5163697;27;19912;-70
2022/02/09 07:13:16;;;;;;;;;;;12.60;55.30;;;;;;5163597;27;20004;-70
2022/02/09 07:15:49;;;;;;;;;;;12.60;55.30;;;;;;5163636;27;19911;-70
2022/02/09 07:18:15;;;;;;;;;;;12.60;55.40;;;;;;5163636;27;19978;-70
2022/02/09 07:26:08;;;;;;;;;;;12.60;55.40;;;;;;5163716;27;19990;-69
2022/02/09 07:28:34;;;;;;;;;;;12.60;55.30;;;;;;5163405;27;19943;-70
2022/02/09 07:31:00;;;;;;;;;;;12.60;55.30;;;;;;5163318;27;19935;-70
2022/02/09 07:33:26;;;;;;;;;;;12.60;55.20;;;;;;5163262;27;19911;-70
2022/02/09 07:35:51;;;;;;;;;;;12.60;55.20;;;;;;5163253;27;19946;-70
2022/02/09 07:38:17;;;;;;;;;;;12.60;55.20;;;;;;5163047;27;19903;-70
2022/02/09 07:40:43;;;;;;;;;;;12.60;55.30;;;;;;5163085;27;19956;-70
2022/02/09 07:43:17;;;;;;;;;;;12.60;55.30;;;;;;5162954;27;19915;-69
2022/02/09 07:50:41;;;;;;;;;;;12.60;55.20;;;;;;5162826;27;19933;-70
2022/02/09 07:53:11;;;;;;;;;;;12.60;55.30;;;;;;5163027;27;19978;-69
2022/02/09 07:55:37;;;;;;;;;;;12.60;55.30;;;;;;5162816;27;19911;-70
2022/02/09 07:58:03;;;;;;;;;;;12.60;55.30;;;;;;5162810;27;19903;-70
2022/02/09 08:00:29;;;;;;;;;;;12.60;55.40;;;;;;5162173;27;19940;-70
2022/02/09 08:02:57;;;;;;;;;;;12.60;55.30;;;;;;5162651;27;20076;-70
2022/02/09 08:05:22;;;;;;;;;;;12.60;55.30;;;;;;5162591;27;20316;-70
2022/02/09 08:07:48;;;;;;;;;;;12.60;55.30;;;;;;5162557;27;19956;-70
2022/02/09 08:10:20;;;;;;;;;;;12.60;55.30;;;;;;5162525;27;19911;-70
2022/02/09 08:26:52;;;;;;;;;;;12.60;55.30;;;;;;5162275;27;19910;-69
2022/02/09 08:29:28;;;;;;;;;;;12.60;55.30;;;;;;5162161;27;19915;-70
2022/02/09 08:34:28;;;;;;;;;;;12.60;55.30;;;;;;5162376;27;19919;-70
2022/02/09 08:36:55;;;;;;;;;;;12.60;55.30;;;;;;5162095;27;19982;-69
2022/02/09 08:39:21;;;;;;;;;;;12.60;55.30;;;;;;5161985;27;20200;-69
2022/02/09 08:41:47;;;;;;;;;;;12.60;55.40;;;;;;5161944;27;19910;-69
2022/02/09 08:44:13;;;;;;;;;;;12.60;55.30;;;;;;5161930;27;19921;-69
2022/02/09 08:46:42;;;;;;;;;;;12.60;55.30;;;;;;5161935;27;19911;-69
2022/02/09 08:49:08;;;;;;;;;;;12.60;55.30;;;;;;5161856;27;19915;-69
2022/02/09 08:51:34;;;;;;;;;;;12.60;55.30;;;;;;5161828;27;19911;-70
2022/02/09 08:54:00;;;;;;;;;;;12.60;55.20;;;;;;5161744;27;20233;-70
2022/02/09 08:56:28;;;;;;;;;;;12.60;55.30;;;;;;5161866;27;19911;-69
2022/02/09 08:58:53;;;;;;;;;;;12.70;55.30;;;;;;5161771;27;19974;-70
2022/02/09 09:01:30;;;;;;;;;;;12.70;55.30;;;;;;5161687;27;19911;-70
2022/02/09 09:03:59;;;;;;;;;;;12.70;55.20;;;;;;5161701;27;19963;-70
2022/02/09 09:06:27;;;;;;;;;;;12.70;55.30;;;;;;5161588;27;20195;-70
2022/02/09 09:11:45;;;;;;;;;;;12.60;55.30;;;;;;5162332;27;19975;-70
2022/02/09 10:02:52;;;;;;;;;;;12.80;55.40;;;;;;5164918;27;19918;-70
2022/02/09 10:34:16;;;;;;;;;;;12.90;55.60;;;;;;5118204;27;19927;-70
2022/02/09 10:36:50;;;;;;;;;;;12.90;55.60;;;;;;5109375;27;19903;-70
2022/02/09 10:39:19;;;;;;;;;;;12.90;55.60;;;;;;5164488;27;19990;-69
2022/02/09 10:42:17;;;;;;;;;;;12.90;55.70;;;;;;5164211;27;20316;-69
2022/02/09 10:44:53;;;;;;;;;;;12.90;55.80;;;;;;5164172;27;19907;-70
2022/02/09 10:47:22;;;;;;;;;;;12.90;55.70;;;;;;5164005;27;19948;-69
2022/02/09 10:50:06;;;;;;;;;;;12.90;55.80;;;;;;5164017;27;19922;-70
2022/02/09 10:52:41;;;;;;;;;;;12.90;55.80;;;;;;5163950;27;19904;-69
2022/02/09 10:55:24;;;;;;;;;;;12.90;55.90;;;;;;5164066;27;19911;-71
2022/02/09 10:57:51;;;;;;;;;;;12.90;56.00;;;;;;5163850;27;19919;-70
2022/02/09 11:00:16;;;;;;;;;;;12.90;55.90;;;;;;5163813;27;19949;-69
2022/02/09 11:02:43;;;;;;;;;;;12.90;55.80;;;;;;5163740;27;19903;-71
2022/02/09 11:05:09;;;;;;;;;;;12.90;55.80;;;;;;5163584;27;19930;-71
2022/02/09 11:07:34;;;;;;;;;;;12.90;55.70;;;;;;5163707;27;19903;-70
2022/02/09 11:10:00;;;;;;;;;;;12.90;55.80;;;;;;5163588;27;20103;-69
2022/02/09 11:12:25;;;;;;;;;;;12.90;55.80;;;;;;5163612;27;19918;-71
2022/02/09 11:14:51;;;;;;;;;;;12.90;55.90;;;;;;5144970;27;19939;-71
2022/02/09 11:17:18;;;;;;;;;;;12.90;56.00;;;;;;5163368;27;20236;-69
2022/02/09 11:19:45;;;;;;;;;;;12.90;56.00;;;;;;5163429;27;19918;-70
2022/02/09 11:22:11;;;;;;;;;;;12.90;56.10;;;;;;5163395;27;20319;-69
2022/02/09 11:24:44;;;;;;;;;;;12.90;56.00;;;;;;5163231;27;19907;-70
2022/02/09 11:27:54;;;;;;;;;;;12.90;56.10;;;;;;5163301;27;19904;-70
2022/02/09 11:30:13;;;;;;;;;;;12.90;56.10;;;;;;5159916;27;19911;-71
2022/02/09 11:32:57;;;;;;;;;;;12.90;56.10;;;;;;5163544;27;19946;-70
2022/02/09 11:35:32;;;;;;;;;;;13.00;56.10;;;;;;5162139;27;19903;-70
2022/02/09 11:40:40;;;;;;;;;;;13.00;56.00;;;;;;5162934;27;20116;-70
2022/02/09 11:52:32;;;;;;;;;;;12.90;56.00;;;;;;5163024;27;19967;-69
2022/02/09 11:57:42;;;;;;;;;;;13.00;56.10;;;;;;5162641;27;19911;-71
2022/02/09 12:10:58;;;;;;;;;;;13.10;55.90;;;;;;5162458;27;20211;-69
2022/02/09 12:13:54;;;;;;;;;;;13.10;55.90;;;;;;5162414;27;19911;-69
2022/02/09 12:19:09;;;;;;;;;;;13.10;55.70;;;;;;5162290;27;20118;-69
2022/02/09 12:24:32;;;;;;;;;;;13.10;55.80;;;;;;5162331;27;19986;-70
2022/02/09 12:26:58;;;;;;;;;;;13.10;55.80;;;;;;5162091;27;20249;-69
2022/02/09 12:29:27;;;;;;;;;;;13.10;55.80;;;;;;5143577;27;19911;-69
2022/02/09 12:31:53;;;;;;;;;;;13.10;55.80;;;;;;5162016;27;19940;-69
2022/02/09 12:34:25;;;;;;;;;;;13.10;55.90;;;;;;5161902;27;19915;-70
2022/02/09 12:36:54;;;;;;;;;;;13.10;56.00;;;;;;5161915;27;20115;-70
2022/02/09 12:39:20;;;;;;;;;;;13.10;56.00;;;;;;5161842;27;19911;-69
2022/02/09 12:41:46;;;;;;;;;;;13.10;56.00;;;;;;5161874;27;19911;-70
2022/02/09 12:44:18;;;;;;;;;;;13.10;56.00;;;;;;5161826;27;19914;-69
2022/02/09 12:46:45;;;;;;;;;;;13.20;56.00;;;;;;5161570;27;19976;-70
2022/02/09 12:49:12;;;;;;;;;;;13.20;56.00;;;;;;5161827;27;19911;-70
2022/02/09 12:51:40;;;;;;;;;;;13.20;55.90;;;;;;5161798;27;19911;-69
2022/02/09 12:54:06;;;;;;;;;;;13.20;55.90;;;;;;5161838;27;20050;-69
2022/02/09 12:56:35;;;;;;;;;;;13.20;55.90;;;;;;5161755;27;19907;-69
2022/02/09 12:59:12;;;;;;;;;;;13.20;55.90;;;;;;5161769;27;19982;-71
2022/02/09 13:01:38;;;;;;;;;;;13.20;55.80;;;;;;5161675;27;20183;-71
2022/02/09 13:04:04;;;;;;;;;;;13.20;56.00;;;;;;5161664;27;19930;-70
2022/02/09 13:06:30;;;;;;;;;;;13.20;56.10;;;;;;5161371;27;19923;-70
2022/02/09 13:08:55;;;;;;;;;;;13.20;55.90;;;;;;5161624;27;19911;-70
2022/02/09 13:13:49;;;;;;;;;;;13.20;56.00;;;;;;5161811;27;19962;-70
2022/02/09 13:16:42;;;;;;;;;;;13.30;56.10;;;;;;5161561;27;19982;-70
2022/02/09 14:04:17;;;;;;;;;;;13.40;56.30;;;;;;5145942;27;19914;-69
2022/02/09 14:52:30;;;;;;;;;;;13.70;56.40;;;;;;5163953;27;19903;-69
2022/02/09 14:57:05;;;;;;;;;;;13.70;56.30;;;;;;5163813;27;19911;-70
2022/02/09 15:02:03;;;;;;;;;;;13.80;56.20;;;;;;5163713;27;19963;-69
2022/02/09 15:12:15;;;;;;;;;;;13.80;56.40;;;;;;5163528;27;20130;-70
2022/02/09 15:22:37;;;;;;;;;;;13.80;56.30;;;;;;5163568;27;19919;-70
2022/02/09 15:25:10;;;;;;;;;;;13.80;56.50;;;;;;5163240;27;19907;-69
2022/02/09 15:27:36;;;;;;;;;;;13.70;56.60;;;;;;5163325;27;19911;-69
2022/02/09 15:30:02;;;;;;;;;;;13.70;56.80;;;;;;5163192;27;19938;-70
2022/02/09 15:34:58;;;;;;;;;;;13.70;56.90;;;;;;5163349;27;19968;-70
2022/02/09 15:39:55;;;;;;;;;;;13.60;56.90;;;;;;5163020;27;19903;-69
2022/02/09 16:09:38;;;;;;;;;;;13.50;57.20;;;;;;5161650;27;20193;-70
2022/02/09 16:23:01;;;;;;;;;;;13.50;57.10;;;;;;5162091;27;19926;-69
2022/02/09 16:34:06;;;;;;;;;;;13.50;57.20;;;;;;5162043;27;19956;-70
2022/02/09 16:44:44;;;;;;;;;;;13.40;57.20;;;;;;5161846;27;19914;-69
2022/02/09 16:50:06;;;;;;;;;;;13.50;57.20;;;;;;5122536;27;19946;-69
2022/02/09 17:19:27;;;;;;;;;;;13.50;56.90;;;;;;5161502;27;20148;-70
2022/02/09 17:21:53;;;;;;;;;;;13.50;56.90;;;;;;5161482;27;19911;-70
2022/02/09 17:24:18;;;;;;;;;;;13.50;57.00;;;;;;5161952;27;19946;-70
2022/02/09 17:26:44;;;;;;;;;;;13.50;57.00;;;;;;5142959;27;20191;-69
2022/02/09 17:29:16;;;;;;;;;;;13.50;56.90;;;;;;5161383;27;19978;-69
2022/02/09 17:31:51;;;;;;;;;;;13.50;56.90;;;;;;5161415;27;20114;-70
2022/02/09 17:37:10;;;;;;;;;;;13.50;56.90;;;;;;5165436;27;19952;-70
2022/02/09 17:53:27;;;;;;;;;;;13.50;56.70;;;;;;5165215;27;20405;-69
2022/02/09 17:55:59;;;;;;;;;;;13.50;56.70;;;;;;5165146;27;19918;-70
2022/02/09 17:58:35;;;;;;;;;;;13.50;56.70;;;;;;5165112;27;19903;-69
2022/02/09 18:01:02;;;;;;;;;;;13.50;56.70;;;;;;5165014;27;19912;-70
2022/02/09 18:03:28;;;;;;;;;;;13.50;56.70;;;;;;5164872;27;20210;-70
2022/02/09 18:05:56;;;;;;;;;;;13.50;56.60;;;;;;5164656;27;19923;-70
2022/02/09 18:11:03;;;;;;;;;;;13.50;56.70;;;;;;5165038;27;19911;-70
2022/02/09 18:28:03;;;;;;;;;;;13.40;56.70;;;;;;5164569;27;19910;-69
2022/02/09 18:29:54;;;;;;;;;;;13.50;56.60;;;;;;5153094;27;19911;-70
2022/02/09 18:43:16;;;;;;;;;;;13.50;56.50;;;;;;5089535;27;19936;-71
2022/02/09 18:45:47;;;;;;;;;;;13.50;56.50;;;;;;5164107;27;19903;-70
2022/02/09 19:04:25;;;;;;;;;;;13.50;56.60;;;;;;5163745;27;19976;-70
2022/02/09 19:14:53;;;;;;;;;;;13.50;56.40;;;;;;5163649;27;19910;-70
2022/02/09 19:20:02;;;;;;;;;;;13.50;56.40;;;;;;5163492;27;19939;-69
2022/02/09 19:30:49;;;;;;;;;;;13.40;56.50;;;;;;5148935;27;20238;-69
2022/02/09 19:40:34;;;;;;;;;;;13.40;56.50;;;;;;5163264;27;19910;-70
2022/02/09 19:47:20;;;;;;;;;;;13.40;56.50;;;;;;5163013;27;20198;-70
2022/02/09 19:52:47;;;;;;;;;;;13.50;56.30;;;;;;5162869;27;19907;-69
2022/02/09 19:55:35;;;;;;;;;;;13.40;56.30;;;;;;5162111;27;19983;-69
2022/02/09 19:58:01;;;;;;;;;;;13.50;56.30;;;;;;5162761;27;19967;-70
2022/02/09 20:00:30;;;;;;;;;;;13.50;56.30;;;;;;5162764;27;20214;-70
2022/02/09 20:02:55;;;;;;;;;;;13.40;56.20;;;;;;5162595;27;19918;-70
2022/02/09 20:05:22;;;;;;;;;;;13.40;56.90;;;;;;5162457;27;19911;-70
2022/02/09 20:07:48;;;;;;;;;;;13.40;56.30;;;;;;5162562;27;19954;-70
2022/02/09 20:10:14;;;;;;;;;;;13.40;56.30;;;;;;5162503;27;20011;-71
2022/02/09 20:12:40;;;;;;;;;;;13.40;56.30;;;;;;5162432;27;19979;-71
2022/02/09 20:15:06;;;;;;;;;;;13.40;56.30;;;;;;5162499;27;19911;-71
2022/02/09 20:17:32;;;;;;;;;;;13.40;56.40;;;;;;5161798;27;19903;-70
2022/02/09 20:19:58;;;;;;;;;;;13.40;56.40;;;;;;5162421;27;19911;-70
2022/02/09 20:22:24;;;;;;;;;;;13.40;56.50;;;;;;5162316;27;19977;-70
2022/02/09 20:24:50;;;;;;;;;;;13.40;56.40;;;;;;5162213;27;19907;-70
2022/02/09 20:27:19;;;;;;;;;;;13.40;56.40;;;;;;5162296;27;19918;-70
2022/02/09 20:29:46;;;;;;;;;;;13.40;56.30;;;;;;5162207;27;19903;-70
2022/02/09 20:32:23;;;;;;;;;;;13.40;56.20;;;;;;5162214;27;19919;-70
2022/02/09 20:34:54;;;;;;;;;;;13.40;56.20;;;;;;5162212;27;19907;-70
2022/02/09 20:37:20;;;;;;;;;;;13.50;56.20;;;;;;5162340;27;19926;-70
2022/02/09 20:39:57;;;;;;;;;;;13.40;56.10;;;;;;5162172;27;20011;-70
2022/02/09 20:42:24;;;;;;;;;;;13.40;56.10;;;;;;5162034;27;19918;-70
2022/02/09 20:45:36;;;;;;;;;;;13.40;56.10;;;;;;5161963;27;19914;-70
2022/02/09 20:47:44;;;;;;;;;;;13.40;56.20;;;;;;5150715;27;19911;-70
2022/02/09 20:50:09;;;;;;;;;;;13.40;56.10;;;;;;5162146;27;20100;-70
2022/02/09 20:52:36;;;;;;;;;;;13.40;56.40;;;;;;5161951;27;19911;-68
2022/02/09 20:55:02;;;;;;;;;;;13.40;56.50;;;;;;5161856;27;19939;-69
2022/02/09 20:57:29;;;;;;;;;;;13.40;56.40;;;;;;5161832;27;20271;-70
2022/02/09 21:00:04;;;;;;;;;;;13.40;56.40;;;;;;5161956;27;19990;-69
2022/02/09 21:02:44;;;;;;;;;;;13.40;56.30;;;;;;5161754;27;19903;-70
2022/02/09 21:08:28;;;;;;;;;;;13.40;56.20;;;;;;5149526;27;19907;-69
2022/02/09 21:11:20;;;;;;;;;;;13.40;56.10;;;;;;5168740;27;19911;-70
2022/02/09 21:19:26;;;;;;;;;;;13.40;56.00;;;;;;5168586;27;19934;-70
2022/02/09 21:58:51;;;;;;;;;;;13.40;56.00;;;;;;5168236;27;20107;-69
2022/02/09 22:07:18;;;;;;;;;;;13.40;56.00;;;;;;5167964;27;19922;-70
2022/02/09 22:23:48;;;;;;;;;;;13.40;56.20;;;;;;5164981;27;19926;-69
2022/02/09 22:28:53;;;;;;;;;;;13.40;56.10;;;;;;5164940;27;19953;-70
2022/02/09 22:55:22;;;;;;;;;;;13.40;56.00;;;;;;5164399;27;19956;-69
2022/02/09 22:57:57;;;;;;;;;;;13.40;56.00;;;;;;5164096;27;20441;-70
2022/02/09 23:00:50;;;;;;;;;;;13.40;56.10;;;;;;5164076;27;20204;-70
2022/02/09 23:03:37;;;;;;;;;;;13.40;56.00;;;;;;5163911;27;19985;-69
2022/02/09 23:06:53;;;;;;;;;;;13.40;55.90;;;;;;5163789;27;19962;-69
2022/02/09 23:09:32;;;;;;;;;;;13.40;55.80;;;;;;5152616;27;19915;-70
2022/02/09 23:22:48;;;;;;;;;;;13.30;55.80;;;;;;5163838;27;19903;-69
